createdAt,value
2023-02-12T00:01:35.343Z,93.88
2023-02-12T00:04:03.460Z,94.51
2023-02-12T00:06:31.513Z,94.68
2023-02-12T00:08:59.957Z,94.75
2023-02-12T00:11:29.623Z,94.22
2023-02-12T00:13:59.427Z,95.38
2023-02-12T00:16:29.304Z,94.82
2023-02-12T00:18:58.773Z,95.09
2023-02-12T00:21:26.891Z,94.80
2023-02-12T00:23:55.192Z,95.09
2023-02-12T00:26:24.146Z,94.78
2023-02-12T00:28:53.294Z,95.35
2023-02-12T00:31:24.590Z,94.98
2023-02-12T00:33:52.817Z,94.66
2023-02-12T00:36:22.742Z,94.93
2023-02-12T00:38:52.968Z,94.59
2023-02-12T00:41:21.996Z,96.95
2023-02-12T00:43:50.743Z,96.05
2023-02-12T00:46:19.508Z,97.60
2023-02-12T00:48:49.113Z,95.71
2023-02-12T00:51:20.127Z,97.09
2023-02-12T00:53:48.230Z,97.99
2023-02-12T00:56:16.403Z,97.01
2023-02-12T00:58:44.663Z,97.25
2023-02-12T01:01:12.808Z,97.44
2023-02-12T01:03:40.970Z,97.56
2023-02-12T01:06:10.690Z,98.42
2023-02-12T01:08:38.831Z,99.43
2023-02-12T01:11:08.172Z,99.18
2023-02-12T01:13:36.855Z,99.74
2023-02-12T01:16:08.858Z,99.76
2023-02-12T01:18:37.826Z,98.21
2023-02-12T01:21:12.943Z,96.86
2023-02-12T01:23:41.236Z,96.94
2023-02-12T01:26:12.202Z,97.94
2023-02-12T01:28:40.588Z,96.85
2023-02-12T01:31:12.068Z,96.83
2023-02-12T01:33:40.732Z,95.33
2023-02-12T01:36:09.926Z,95.13
2023-02-12T01:38:39.534Z,95.37
2023-02-12T01:41:11.856Z,95.46
2023-02-12T01:43:40.369Z,95.96
2023-02-12T01:46:11.579Z,97.18
2023-02-12T01:48:43.420Z,95.96
2023-02-12T01:51:16.115Z,95.67
2023-02-12T01:53:51.996Z,96.19
2023-02-12T01:56:20.619Z,96.03
2023-02-12T01:58:52.551Z,96.31
2023-02-12T02:01:24.103Z,95.23
2023-02-12T02:03:57.009Z,95.25
2023-02-12T02:06:29.549Z,93.46
2023-02-12T02:08:59.130Z,93.21
2023-02-12T02:11:44.511Z,92.98
2023-02-12T02:14:30.366Z,92.97
2023-02-12T02:17:11.351Z,94.40
2023-02-12T02:20:02.523Z,94.51
2023-02-12T02:22:39.152Z,94.74
2023-02-12T02:25:30.826Z,95.95
2023-02-12T02:28:13.241Z,95.07
2023-02-12T02:30:47.140Z,95.04
2023-02-12T02:33:24.682Z,94.29
2023-02-12T02:36:03.113Z,93.88
2023-02-12T02:38:41.130Z,94.17
2023-02-12T02:41:22.683Z,93.74
2023-02-12T02:43:53.180Z,94.99
2023-02-12T02:46:31.055Z,95.58
2023-02-12T02:49:03.220Z,96.56
2023-02-12T02:51:34.451Z,95.86
2023-02-12T02:54:09.305Z,96.75
2023-02-12T02:56:40.460Z,96.67
2023-02-12T02:59:13.220Z,96.39
2023-02-12T03:01:46.688Z,96.89
2023-02-12T03:04:20.605Z,96.79
2023-02-12T03:07:07.934Z,97.08
2023-02-12T03:09:42.099Z,97.71
2023-02-12T03:12:15.453Z,99.32
2023-02-12T03:14:47.881Z,98.21
2023-02-12T03:17:23.296Z,98.51
2023-02-12T03:19:56.477Z,98.36
2023-02-12T03:22:29.522Z,99.69
2023-02-12T03:25:04.809Z,99.27
2023-02-12T03:27:36.282Z,99.63
2023-02-12T03:30:05.522Z,99.80
2023-02-12T03:32:44.413Z,100.00
2023-02-12T03:35:21.058Z,100.00
2023-02-12T03:38:02.826Z,100.00
2023-02-12T03:40:36.216Z,99.85
2023-02-12T03:43:08.121Z,99.71
2023-02-12T03:45:43.761Z,100.00
2023-02-12T03:48:21.516Z,100.00
2023-02-12T03:50:55.636Z,100.00
2023-02-12T03:53:24.085Z,100.00
2023-02-12T03:55:57.714Z,100.00
2023-02-12T03:58:31.165Z,100.00
2023-02-12T04:01:00.135Z,100.00
2023-02-12T04:03:30.814Z,100.00
2023-02-12T04:05:59.181Z,100.00
2023-02-12T04:08:28.747Z,100.00
2023-02-12T04:11:13.105Z,100.00
2023-02-12T04:13:50.896Z,100.00
2023-02-12T04:16:26.736Z,100.00
2023-02-12T04:18:56.914Z,100.00
2023-02-12T04:21:39.566Z,100.00
2023-02-12T04:24:19.295Z,100.00
2023-02-12T04:26:53.309Z,100.00
2023-02-12T04:29:28.118Z,100.00
2023-02-12T04:32:00.785Z,100.00
2023-02-12T04:34:36.678Z,100.00
2023-02-12T04:37:11.202Z,100.00
2023-02-12T04:39:42.362Z,100.00
2023-02-12T04:42:10.644Z,100.00
2023-02-12T04:44:43.593Z,100.00
2023-02-12T04:47:13.357Z,100.00
2023-02-12T04:49:43.095Z,100.00
2023-02-12T04:52:11.238Z,100.00
2023-02-12T04:54:39.672Z,100.00
2023-02-12T04:57:07.823Z,100.00
2023-02-12T04:59:35.998Z,100.00
2023-02-12T05:02:04.219Z,100.00
2023-02-12T05:04:32.293Z,100.00
2023-02-12T05:07:01.821Z,100.00
2023-02-12T05:09:29.983Z,100.00
2023-02-12T05:11:58.104Z,100.00
2023-02-12T05:14:26.657Z,100.00
2023-02-12T05:16:54.802Z,100.00
2023-02-12T05:19:22.909Z,100.00
2023-02-12T05:21:52.230Z,100.00
2023-02-12T05:24:21.761Z,100.00
2023-02-12T05:26:50.541Z,100.00
2023-02-12T05:29:19.048Z,100.00
2023-02-12T05:31:47.528Z,100.00
2023-02-12T05:34:15.993Z,100.00
2023-02-12T05:36:44.085Z,100.00
2023-02-12T05:39:12.610Z,100.00
2023-02-12T05:41:42.106Z,100.00
2023-02-12T05:44:12.064Z,100.00
2023-02-12T05:46:40.420Z,100.00
2023-02-12T05:49:08.778Z,100.00
2023-02-12T05:51:37.374Z,100.00
2023-02-12T05:54:07.025Z,100.00
2023-02-12T05:56:37.059Z,100.00
2023-02-12T05:59:10.079Z,100.00
2023-02-12T06:01:39.772Z,100.00
2023-02-12T06:04:12.607Z,100.00
2023-02-12T06:06:42.178Z,100.00
2023-02-12T06:09:11.051Z,100.00
2023-02-12T06:11:39.689Z,100.00
2023-02-12T06:14:12.717Z,100.00
2023-02-12T06:16:41.531Z,100.00
2023-02-12T06:19:10.876Z,100.00
2023-02-12T06:21:39.088Z,100.00
2023-02-12T06:24:07.479Z,100.00
2023-02-12T06:26:35.653Z,100.00
2023-02-12T06:29:03.759Z,100.00
2023-02-12T06:31:35.278Z,100.00
2023-02-12T06:34:05.489Z,100.00
2023-02-12T06:36:34.027Z,100.00
2023-02-12T06:39:03.076Z,100.00
2023-02-12T06:41:31.456Z,100.00
2023-02-12T06:43:59.642Z,100.00
2023-02-12T06:46:28.064Z,100.00
2023-02-12T06:48:59.305Z,100.00
2023-02-12T06:51:29.017Z,100.00
2023-02-12T06:53:57.532Z,100.00
2023-02-12T06:56:28.095Z,100.00
2023-02-12T06:58:57.701Z,100.00
2023-02-12T07:01:28.842Z,100.00
2023-02-12T07:04:00.169Z,100.00
2023-02-12T07:06:29.639Z,100.00
2023-02-12T07:08:58.633Z,100.00
2023-02-12T07:11:27.653Z,100.00
2023-02-12T07:13:55.970Z,100.00
2023-02-12T07:16:24.543Z,100.00
2023-02-12T07:18:52.769Z,100.00
2023-02-12T07:21:22.376Z,100.00
2023-02-12T07:23:52.127Z,100.00
2023-02-12T07:26:22.112Z,100.00
2023-02-12T07:28:50.900Z,99.56
2023-02-12T07:31:21.303Z,98.02
2023-02-12T07:33:50.332Z,96.58
2023-02-12T07:36:19.942Z,95.96
2023-02-12T07:38:49.549Z,94.89
2023-02-12T07:41:19.976Z,94.04
2023-02-12T07:43:49.992Z,93.52
2023-02-12T07:46:20.381Z,90.29
2023-02-12T07:48:49.305Z,87.24
2023-02-12T07:51:19.991Z,84.70
2023-02-12T07:53:50.110Z,83.19
2023-02-12T07:56:20.553Z,81.59
2023-02-12T07:58:50.818Z,79.65
2023-02-12T08:01:22.015Z,80.32
2023-02-12T08:03:51.922Z,78.70
2023-02-12T08:06:23.067Z,77.39
2023-02-12T08:08:54.199Z,76.66
2023-02-12T08:11:23.022Z,75.17
2023-02-12T08:13:51.615Z,72.12
2023-02-12T08:16:21.614Z,69.34
2023-02-12T08:18:50.688Z,66.94
2023-02-12T08:21:20.561Z,64.50
2023-02-12T08:23:50.971Z,62.29
2023-02-12T08:26:23.225Z,61.83
2023-02-12T08:28:53.608Z,58.41
2023-02-12T08:31:23.664Z,58.49
2023-02-12T08:33:53.337Z,56.54
2023-02-12T08:36:24.151Z,57.25
2023-02-12T08:38:52.521Z,57.37
2023-02-12T08:41:24.218Z,56.53
2023-02-12T08:43:54.965Z,54.98
2023-02-12T08:46:25.741Z,53.99
2023-02-12T08:48:55.248Z,52.39
2023-02-12T08:51:25.224Z,52.20
2023-02-12T08:53:55.671Z,51.25
2023-02-12T08:56:26.343Z,51.25
2023-02-12T08:58:54.506Z,51.79
2023-02-12T09:01:25.085Z,49.37
2023-02-12T09:03:53.623Z,47.53
2023-02-12T09:06:23.922Z,47.89
2023-02-12T09:08:53.837Z,47.41
2023-02-12T09:11:24.483Z,46.98
2023-02-12T09:13:54.670Z,45.77
2023-02-12T09:16:22.872Z,43.84
2023-02-12T09:18:51.023Z,44.65
2023-02-12T09:21:19.957Z,45.19
2023-02-12T09:23:48.562Z,43.84
2023-02-12T09:26:20.799Z,43.18
2023-02-12T09:28:50.016Z,42.63
2023-02-12T09:31:23.263Z,42.87
2023-02-12T09:33:55.031Z,42.82
2023-02-12T09:36:23.455Z,45.41
2023-02-12T09:38:51.682Z,47.37
2023-02-12T09:41:48.578Z,48.25
2023-02-12T09:44:23.896Z,45.75
2023-02-12T09:47:00.087Z,44.77
2023-02-12T09:49:46.654Z,43.62
2023-02-12T09:52:18.825Z,43.50
2023-02-12T09:54:49.207Z,42.75
2023-02-12T09:57:22.306Z,40.99
2023-02-12T09:59:54.961Z,39.48
2023-02-12T10:02:25.925Z,38.45
2023-02-12T10:05:01.649Z,37.51
2023-02-12T10:07:41.679Z,36.80
2023-02-12T10:10:28.346Z,36.47
2023-02-12T10:13:01.575Z,35.92
2023-02-12T10:15:37.298Z,34.81
2023-02-12T10:18:40.834Z,34.27
2023-02-12T10:21:21.398Z,34.11
2023-02-12T10:24:12.793Z,34.59
2023-02-12T10:26:44.698Z,33.56
2023-02-12T10:29:17.315Z,33.72
2023-02-12T10:31:48.499Z,33.71
2023-02-12T10:34:21.431Z,33.09
2023-02-12T10:36:52.798Z,31.85
2023-02-12T10:39:25.433Z,30.46
2023-02-12T10:41:59.457Z,29.63
2023-02-12T10:44:28.061Z,29.66
2023-02-12T10:46:56.924Z,30.27
2023-02-12T10:49:25.407Z,30.67
2023-02-12T10:52:14.797Z,28.94
2023-02-12T10:54:45.737Z,28.06
2023-02-12T10:57:22.117Z,28.47
2023-02-12T10:59:53.264Z,27.71
2023-02-12T11:02:27.439Z,28.37
2023-02-12T11:04:58.419Z,30.29
2023-02-12T11:07:29.418Z,31.21
2023-02-12T11:09:58.901Z,33.23
2023-02-12T11:12:38.386Z,33.79
2023-02-12T11:15:16.111Z,33.70
2023-02-12T11:17:47.309Z,32.05
2023-02-12T11:20:25.718Z,31.24
2023-02-12T11:22:58.608Z,31.53
2023-02-12T11:25:33.000Z,32.14
2023-02-12T11:28:15.468Z,32.01
2023-02-12T11:30:53.611Z,32.03
2023-02-12T11:33:28.439Z,30.58
2023-02-12T11:35:59.543Z,30.21
2023-02-12T11:38:38.843Z,28.47
2023-02-12T11:41:25.591Z,28.54
2023-02-12T11:43:55.638Z,29.90
2023-02-12T11:46:28.121Z,30.96
2023-02-12T11:49:00.879Z,32.90
2023-02-12T11:51:33.561Z,34.28
2023-02-12T11:54:06.686Z,34.81
2023-02-12T11:56:44.744Z,36.97
2023-02-12T11:59:33.585Z,36.02
2023-02-12T12:02:10.714Z,36.29
2023-02-12T12:04:42.201Z,36.80
2023-02-12T12:07:17.943Z,36.96
2023-02-12T12:09:53.182Z,37.37
2023-02-12T12:12:26.804Z,36.72
2023-02-12T12:15:18.846Z,36.54
2023-02-12T12:18:10.750Z,36.33
2023-02-12T12:20:45.585Z,35.58
2023-02-12T12:23:20.104Z,35.89
2023-02-12T12:25:52.956Z,37.58
2023-02-12T12:28:34.391Z,37.85
2023-02-12T12:31:09.851Z,37.86
2023-02-12T12:33:43.924Z,38.46
2023-02-12T12:36:48.105Z,37.74
2023-02-12T12:39:25.152Z,37.00
2023-02-12T12:42:13.056Z,37.25
2023-02-12T12:44:54.043Z,36.91
2023-02-12T12:47:31.343Z,36.25
2023-02-12T12:50:15.295Z,35.02
2023-02-12T12:53:20.020Z,34.79
2023-02-12T12:56:12.318Z,34.73
2023-02-12T12:59:09.978Z,32.97
2023-02-12T13:01:55.746Z,32.23
2023-02-12T13:05:02.385Z,31.49
2023-02-12T13:07:52.266Z,32.56
2023-02-12T13:10:34.490Z,31.21
2023-02-12T13:13:15.237Z,31.96
2023-02-12T13:15:55.599Z,30.97
2023-02-12T13:18:38.724Z,30.69
2023-02-12T13:21:15.217Z,30.66
2023-02-12T13:23:50.779Z,31.32
2023-02-12T13:26:30.867Z,32.64
2023-02-12T13:29:06.298Z,31.81
2023-02-12T13:31:41.450Z,31.90
2023-02-12T13:34:16.487Z,31.66
2023-02-12T13:36:46.779Z,31.22
2023-02-12T13:39:25.009Z,31.52
2023-02-12T13:42:06.104Z,30.89
2023-02-12T13:44:41.558Z,30.08
2023-02-12T13:47:19.831Z,31.35
2023-02-12T13:49:55.014Z,32.13
2023-02-12T13:52:33.088Z,31.09
2023-02-12T13:55:23.166Z,32.01
2023-02-12T13:58:25.653Z,32.38
2023-02-12T14:01:07.599Z,32.32
2023-02-12T14:03:42.111Z,31.80
2023-02-12T14:06:18.429Z,32.72
2023-02-12T14:08:52.053Z,32.01
2023-02-12T14:11:26.178Z,32.53
2023-02-12T14:13:58.797Z,33.00
2023-02-12T14:16:41.407Z,34.15
2023-02-12T14:19:54.522Z,35.09
2023-02-12T14:23:00.097Z,34.04
2023-02-12T14:25:40.093Z,34.27
2023-02-12T14:28:21.790Z,34.57
2023-02-12T14:31:32.221Z,34.58
2023-02-12T14:34:52.307Z,34.63
2023-02-12T14:37:39.252Z,34.88
2023-02-12T14:40:44.051Z,35.51
2023-02-12T14:43:35.418Z,35.64
2023-02-12T14:46:37.615Z,35.67
2023-02-12T14:49:07.748Z,35.40
2023-02-12T14:51:43.924Z,35.97
2023-02-12T14:54:21.801Z,36.38
2023-02-12T14:56:56.077Z,36.32
2023-02-12T14:59:28.827Z,36.35
2023-02-12T15:02:02.710Z,36.92
2023-02-12T15:04:35.144Z,36.72
2023-02-12T15:07:09.544Z,37.16
2023-02-12T15:09:47.637Z,37.91
2023-02-12T15:12:27.008Z,37.56
2023-02-12T15:15:06.656Z,37.98
2023-02-12T15:17:41.149Z,38.49
2023-02-12T15:20:21.946Z,39.18
2023-02-12T15:22:51.442Z,38.90
2023-02-12T15:25:27.929Z,39.11
2023-02-12T15:28:00.076Z,39.69
2023-02-12T15:30:33.263Z,40.41
2023-02-12T15:33:06.398Z,40.82
2023-02-12T15:35:39.234Z,40.85
2023-02-12T15:38:10.124Z,41.56
2023-02-12T15:40:57.297Z,42.10
2023-02-12T15:43:30.804Z,42.24
2023-02-12T15:46:00.664Z,43.26
2023-02-12T15:48:42.187Z,43.85
2023-02-12T15:51:24.776Z,45.03
2023-02-12T15:53:54.868Z,45.40
2023-02-12T15:56:28.081Z,46.01
2023-02-12T15:58:59.865Z,46.50
2023-02-12T16:01:31.861Z,47.22
2023-02-12T16:04:03.726Z,47.93
2023-02-12T16:06:35.352Z,49.60
2023-02-12T16:09:10.004Z,49.81
2023-02-12T16:11:44.592Z,50.02
2023-02-12T16:14:25.488Z,50.63
2023-02-12T16:16:58.335Z,52.82
2023-02-12T16:19:33.541Z,53.37
2023-02-12T16:22:16.940Z,54.91
2023-02-12T16:24:50.082Z,55.07
2023-02-12T16:27:23.446Z,55.90
2023-02-12T16:29:55.421Z,56.95
2023-02-12T16:32:38.611Z,57.98
2023-02-12T16:35:25.941Z,59.33
2023-02-12T16:37:58.485Z,59.01
2023-02-12T16:40:38.299Z,59.42
2023-02-12T16:43:27.328Z,60.14
2023-02-12T16:46:08.396Z,60.86
2023-02-12T16:48:43.109Z,61.70
2023-02-12T16:51:24.283Z,62.73
2023-02-12T16:53:58.144Z,63.44
2023-02-12T16:56:30.009Z,63.68
2023-02-12T16:59:02.543Z,65.23
2023-02-12T17:01:35.193Z,64.84
2023-02-12T17:04:09.672Z,66.37
2023-02-12T17:06:38.705Z,66.89
2023-02-12T17:09:08.940Z,68.93
2023-02-12T17:11:42.371Z,69.47
2023-02-12T17:14:16.047Z,69.39
2023-02-12T17:16:48.103Z,70.30
2023-02-12T17:19:19.318Z,69.70
2023-02-12T17:21:49.675Z,70.55
2023-02-12T17:24:26.223Z,71.22
2023-02-12T17:26:55.885Z,71.57
2023-02-12T17:29:32.896Z,72.28
2023-02-12T17:32:02.727Z,73.52
2023-02-12T17:34:46.508Z,74.04
2023-02-12T17:37:19.246Z,74.49
2023-02-12T17:39:50.948Z,75.99
2023-02-12T17:42:24.458Z,76.90
2023-02-12T17:44:59.295Z,78.47
2023-02-12T17:47:28.380Z,78.19
2023-02-12T17:50:01.600Z,78.94
2023-02-12T17:52:31.326Z,80.13
2023-02-12T17:55:00.902Z,80.25
2023-02-12T17:57:30.610Z,80.00
2023-02-12T18:00:02.313Z,80.55
2023-02-12T18:02:39.966Z,81.08
2023-02-12T18:05:10.940Z,82.09
2023-02-12T18:07:40.449Z,82.15
2023-02-12T18:10:12.354Z,83.08
2023-02-12T18:12:46.097Z,84.61
2023-02-12T18:15:17.712Z,84.73
2023-02-12T18:17:49.432Z,86.58
2023-02-12T18:20:23.882Z,85.74
2023-02-12T18:22:57.662Z,86.04
2023-02-12T18:25:28.375Z,86.52
2023-02-12T18:27:58.651Z,87.30
2023-02-12T18:30:40.961Z,88.10
2023-02-12T18:33:14.656Z,95.85
2023-02-12T18:35:45.022Z,93.44
2023-02-12T18:38:18.552Z,92.43
2023-02-12T18:40:49.082Z,90.83
2023-02-12T18:43:20.037Z,91.03
2023-02-12T18:45:51.296Z,92.09
2023-02-12T18:48:21.187Z,94.43
2023-02-12T18:50:58.063Z,93.35
2023-02-12T18:53:27.680Z,92.88
2023-02-12T18:56:02.451Z,93.78
2023-02-12T18:58:33.220Z,94.23
2023-02-12T19:01:14.924Z,94.99
2023-02-12T19:03:46.011Z,96.34
2023-02-12T19:06:25.954Z,95.32
2023-02-12T19:08:59.001Z,94.87
2023-02-12T19:11:30.927Z,95.11
2023-02-12T19:14:05.694Z,100.00
2023-02-12T19:16:37.932Z,98.95
2023-02-12T19:19:08.567Z,100.00
2023-02-12T19:21:38.962Z,98.32
2023-02-12T19:24:12.417Z,98.50
2023-02-12T19:26:43.151Z,100.00
2023-02-12T19:29:19.128Z,100.00
2023-02-12T19:31:51.148Z,92.53
2023-02-12T19:34:25.383Z,90.07
2023-02-12T19:37:05.363Z,83.19
2023-02-12T19:39:41.647Z,82.59
2023-02-12T19:42:15.377Z,79.45
2023-02-12T19:44:49.693Z,76.51
2023-02-12T19:47:22.708Z,76.27
2023-02-12T19:49:53.361Z,75.24
2023-02-12T19:52:24.597Z,75.78
2023-02-12T19:54:58.744Z,71.32
2023-02-12T19:57:32.142Z,75.12
2023-02-12T20:00:04.258Z,79.53
2023-02-12T20:02:36.758Z,83.23
2023-02-12T20:05:10.758Z,87.79
2023-02-12T20:07:43.806Z,89.34
2023-02-12T20:10:18.015Z,90.42
2023-02-12T20:12:49.887Z,92.01
2023-02-12T20:15:25.697Z,94.35
2023-02-12T20:17:58.019Z,96.52
2023-02-12T20:20:28.710Z,96.95
2023-02-12T20:22:59.243Z,97.97
2023-02-12T20:25:30.806Z,99.61
2023-02-12T20:28:01.576Z,100.00
2023-02-12T20:30:33.059Z,100.00
2023-02-12T20:33:04.857Z,100.00
2023-02-12T20:35:40.324Z,100.00
2023-02-12T20:38:12.886Z,100.00
2023-02-12T20:40:42.444Z,100.00
2023-02-12T20:43:16.833Z,100.00
2023-02-12T20:45:50.480Z,100.00
2023-02-12T20:48:23.226Z,100.00
2023-02-12T20:50:53.500Z,100.00
2023-02-12T20:53:23.906Z,100.00
2023-02-12T20:55:56.334Z,100.00
2023-02-12T20:58:26.295Z,100.00
2023-02-12T21:00:59.251Z,100.00
2023-02-12T21:03:32.420Z,100.00
2023-02-12T21:06:01.264Z,100.00
2023-02-12T21:08:33.803Z,100.00
2023-02-12T21:11:04.260Z,100.00
2023-02-12T21:13:35.292Z,100.00
2023-02-12T21:16:09.851Z,100.00
2023-02-12T21:18:44.976Z,100.00
2023-02-12T21:21:15.932Z,100.00
2023-02-12T21:23:45.752Z,100.00
2023-02-12T21:26:18.158Z,100.00
2023-02-12T21:28:48.352Z,100.00
2023-02-12T21:31:19.784Z,100.00
2023-02-12T21:33:53.595Z,100.00
2023-02-12T21:36:26.445Z,100.00
2023-02-12T21:38:56.085Z,100.00
2023-02-12T21:41:26.611Z,100.00
2023-02-12T21:44:01.188Z,100.00
2023-02-12T21:46:30.929Z,100.00
2023-02-12T21:49:08.629Z,100.00
2023-02-12T21:51:40.223Z,100.00
2023-02-12T21:54:10.916Z,100.00
2023-02-12T21:56:42.560Z,100.00
2023-02-12T21:59:12.142Z,100.00
2023-02-12T22:01:43.899Z,100.00
2023-02-12T22:04:14.956Z,100.00
2023-02-12T22:06:48.549Z,100.00
2023-02-12T22:09:18.534Z,100.00
2023-02-12T22:11:46.740Z,100.00
2023-02-12T22:14:17.534Z,100.00
2023-02-12T22:16:46.202Z,100.00
2023-02-12T22:19:15.802Z,100.00
2023-02-12T22:21:44.496Z,100.00
2023-02-12T22:24:16.859Z,100.00
2023-02-12T22:26:46.178Z,100.00
2023-02-12T22:29:17.984Z,100.00
2023-02-12T22:31:47.529Z,100.00
2023-02-12T22:34:18.943Z,100.00
2023-02-12T22:36:47.914Z,100.00
2023-02-12T22:39:18.691Z,100.00
2023-02-12T22:41:46.865Z,100.00
2023-02-12T22:44:15.885Z,100.00
2023-02-12T22:46:44.456Z,100.00
2023-02-12T22:49:12.654Z,100.00
2023-02-12T22:51:42.600Z,100.00
2023-02-12T22:54:14.483Z,100.00
2023-02-12T22:56:43.169Z,100.00
2023-02-12T22:59:12.284Z,100.00
2023-02-12T23:01:40.701Z,100.00
2023-02-12T23:04:09.177Z,100.00
2023-02-12T23:06:40.810Z,100.00
2023-02-12T23:09:14.257Z,100.00
2023-02-12T23:11:42.454Z,100.00
2023-02-12T23:14:10.575Z,100.00
2023-02-12T23:16:38.701Z,100.00
2023-02-12T23:19:06.962Z,100.00
2023-02-12T23:21:35.396Z,100.00
2023-02-12T23:24:03.649Z,100.00
2023-02-12T23:26:33.442Z,100.00
2023-02-12T23:29:01.499Z,100.00
2023-02-12T23:31:29.723Z,100.00
2023-02-12T23:33:57.910Z,100.00
2023-02-12T23:36:26.110Z,100.00
2023-02-12T23:38:54.234Z,100.00
2023-02-12T23:41:22.321Z,100.00
2023-02-12T23:43:51.955Z,100.00
2023-02-12T23:46:20.137Z,100.00
2023-02-12T23:48:48.257Z,100.00
2023-02-12T23:51:16.324Z,100.00
2023-02-12T23:53:44.438Z,100.00
2023-02-12T23:56:12.543Z,100.00
2023-02-12T23:58:40.695Z,100.00
